ADDS METAR Data INFO
IDs: Format: Raw Decoded Include TAF

Data at: 0644 UTC 23 Feb 2018

KAUN 230635Z AUTO 00000KT 10SM CLR 00/M01 A3014 RMK AO1
KAUN 230615Z AUTO 00000KT 10SM CLR M01/M01 A3014 RMK AO1
KAUN 230555Z AUTO 00000KT 10SM CLR 00/00 A3013 RMK AO1
KAUN 230535Z AUTO 00000KT 10SM CLR 00/00 A3013 RMK AO1
KAUN 230515Z AUTO 00000KT 10SM CLR 00/00 A3012 RMK AO1
KAUN 230455Z AUTO 00000KT 10SM CLR 00/00 A3012 RMK AO1
KAUN 230435Z AUTO 00000KT 10SM CLR 01/00 A3011 RMK AO1
KAUN 230415Z AUTO 12003KT 10SM CLR 00/00 A3011 RMK AO1
KAUN 230355Z AUTO 00000KT 10SM CLR 00/00 A3010 RMK AO1
KAUN 230335Z AUTO 00000KT 10SM FEW065 01/00 A3010 RMK AO1
KAUN 230315Z AUTO 00000KT 10SM FEW037 SCT065 01/00 A3010 RMK AO1
KAUN 230255Z AUTO 09005KT 10SM FEW065 01/00 A3009 RMK AO1
KAUN 230235Z AUTO 08005KT 10SM SCT065 01/00 A3008 RMK AO1
KAUN 230215Z AUTO 08007KT 10SM CLR 01/00 A3007 RMK AO1
KAUN 230155Z AUTO 09006KT 10SM FEW090 01/00 A3007 RMK AO1 P0004
KAUN 230135Z AUTO 14004KT 10SM FEW001 SCT012 BKN042 02/00 A3006 RMK AO1 P0004
KAUN 230115Z AUTO 29004KT 2SM BKN001 OVC010 02/00 A3008 RMK AO1 P0003
KAUN 230055Z AUTO 34003KT 1 1/4SM BKN001 BKN005 OVC010 01/00 A3008 RMK AO1 P0010
KAUN 230035Z AUTO 08004KT 1SM BKN003 OVC009 01/01 A3008 RMK AO1 P0006
KAUN 230015Z AUTO 00000KT 1SM OVC003 01/01 A3008 RMK AO1 P0002
KAUN 222355Z AUTO 05004KT 5SM FEW001 BKN017 OVC027 04/02 A3008 RMK AO1 P0001
KAUN 222335Z AUTO 17005KT 5SM SCT020 BKN031 OVC045 04/01 A3008 RMK AO1
KAUN 222315Z AUTO 15007KT 10SM FEW018 FEW038 BKN047 05/02 A3008 RMK AO1
KAUN 222255Z AUTO 18006G17KT 10SM FEW018 SCT029 SCT045 05/01 A3008 RMK AO1
KAUN 222235Z AUTO 18006KT 7SM SCT018 BKN033 OVC085 06/01 A3008 RMK AO1
KAUN 222215Z AUTO 19006KT 10SM BKN036 BKN047 BKN080 07/00 A3010 RMK AO1
KAUN 222155Z AUTO 17007KT 10SM BKN034 BKN044 OVC070 07/00 A3010 RMK AO1
KAUN 222135Z AUTO 22007KT 10SM FEW032 SCT050 BKN065 07/00 A3011 RMK AO1
KAUN 222115Z AUTO 17008KT 10SM FEW090 07/00 A3012 RMK AO1
KAUN 222055Z AUTO 18010G14KT 030V040 10SM FEW049 FEW075 FEW100 07/00 A3013 RMK AO1
KAUN 222035Z AUTO 20009KT 10SM FEW033 SCT041 BKN049 07/00 A3014 RMK AO1
KAUN 222015Z AUTO 23008KT 10SM FEW028 SCT034 BKN042 06/00 A3016 RMK AO1
KAUN 221955Z AUTO 19005KT 10SM FEW022 BKN080 06/00 A3016 RMK AO1
KAUN 221935Z AUTO 21008KT 10SM OVC080 06/00 A3017 RMK AO1
KAUN 221915Z AUTO 21008KT 10SM FEW028 BKN080 06/01 A3017 RMK AO1
KAUN 221855Z AUTO 20009KT 10SM SCT018 BKN028 BKN080 05/01 A3017 RMK AO1
KAUN 221835Z AUTO 20008KT 10SM BKN017 BKN021 BKN080 05/01 A3017 RMK AO1
KAUN 221815Z AUTO 18008KT 030V040 10SM BKN014 OVC020 05/01 A3016 RMK AO1
KAUN 221755Z AUTO 21010G14KT 10SM BKN012 OVC018 04/01 A3016 RMK AO1
KAUN 221735Z AUTO 21009KT 10SM BKN012 BKN018 04/01 A3015 RMK AO1
KAUN 221715Z AUTO 18008G15KT 10SM BKN010 OVC014 04/01 A3014 RMK AO1
KAUN 221655Z AUTO 20009KT 10SM OVC008 03/02 A3014 RMK AO1
KAUN 221635Z AUTO 20012G16KT 10SM OVC008 03/01 A3014 RMK AO1
KAUN 221615Z AUTO 20008KT 10SM OVC010 03/01 A3013 RMK AO1
KAUN 221555Z AUTO 17011KT 10SM OVC010 03/01 A3012 RMK AO1
KAUN 221535Z AUTO 17007KT 10SM OVC010 03/01 A3012 RMK AO1
KAUN 221515Z AUTO 17007KT 10SM OVC010 03/01 A3012 RMK AO1
KAUN 221455Z AUTO 16007KT 10SM OVC010 03/01 A3013 RMK AO1
KAUN 221435Z AUTO 17007KT 10SM OVC010 03/00 A3012 RMK AO1
KAUN 221415Z AUTO 17006KT 10SM OVC012 03/00 A3012 RMK AO1
KAUN 221355Z AUTO 18004KT 10SM BKN014 OVC070 03/00 A3011 RMK AO1
KAUN 221335Z AUTO 16007KT 10SM BKN070 03/M01 A3010 RMK AO1
KAUN 221315Z AUTO 15008KT 10SM BKN070 OVC100 03/M01 A3010 RMK AO1
KAUN 221255Z AUTO 15007KT 10SM FEW015 SCT070 OVC100 03/M01 A3010 RMK AO1
KAUN 221235Z AUTO 15007KT 10SM OVC015 03/M01 A3010 RMK AO1
KAUN 221215Z AUTO 16006KT 10SM OVC011 03/M02 A3010 RMK AO1
KAUN 221155Z AUTO 16008KT 10SM SCT011 BKN110 03/M03 A3011 RMK AO1
KAUN 221135Z AUTO 17008KT 10SM FEW049 SCT100 04/M03 A3011 RMK AO1
KAUN 221115Z AUTO 15008KT 10SM BKN049 04/M03 A3012 RMK AO1
KAUN 221055Z AUTO 15007KT 10SM BKN049 04/M03 A3012 RMK AO1
KAUN 221035Z AUTO 14007KT 10SM FEW044 BKN050 BKN060 04/M04 A3013 RMK AO1
KAUN 221015Z AUTO 11009KT 10SM BKN044 OVC060 04/M05 A3013 RMK AO1
KAUN 220955Z AUTO 13006KT 10SM BKN044 OVC060 04/M05 A3014 RMK AO1
KAUN 220935Z AUTO 11009KT 10SM BKN046 BKN055 03/M05 A3013 RMK AO1
KAUN 220915Z AUTO 12007KT 10SM BKN049 BKN055 03/M05 A3013 RMK AO1
KAUN 220855Z AUTO 12008KT 10SM FEW049 BKN055 03/M05 A3014 RMK AO1
KAUN 220835Z AUTO 13006KT 10SM FEW055 03/M05 A3014 RMK AO1
KAUN 220815Z AUTO 12007KT 10SM CLR 02/M05 A3015 RMK AO1
KAUN 220755Z AUTO 12006KT 10SM CLR 02/M05 A3014 RMK AO1
KAUN 220735Z AUTO 12005KT 10SM CLR 03/M05 A3015 RMK AO1
KAUN 220715Z AUTO 12007KT 10SM CLR 03/M05 A3015 RMK AO1
KAUN 220655Z AUTO 13006KT 10SM CLR 03/M05 A3015 RMK AO1
KAUN 220635Z AUTO 11005KT 10SM CLR 02/M05 A3015 RMK AO1
KAUN 220615Z AUTO 11006KT 10SM CLR 03/M05 A3014 RMK AO1
KAUN 220555Z AUTO 10006KT 10SM CLR 02/M04 A3014 RMK AO1
KAUN 220535Z AUTO 09006KT 10SM CLR 03/M05 A3014 RMK AO1
KAUN 220515Z AUTO 00000KT 10SM CLR 02/M05 A3015 RMK AO1
KAUN 220455Z AUTO 00000KT 10SM CLR 00/M04 A3014 RMK AO1
KAUN 220435Z AUTO 00000KT 10SM CLR 00/M04 A3014 RMK AO1
KAUN 220415Z AUTO 00000KT 10SM CLR 01/M04 A3014 RMK AO1
KAUN 220355Z AUTO 00000KT 10SM CLR 01/M04 A3014 RMK AO1
KAUN 220035Z AUTO 32004KT 10SM CLR 09/M06 A3013 RMK AO1
KAUN 220015Z AUTO 27006KT 10SM CLR 09/M06 A3013 RMK AO1
KAUN 212355Z AUTO 28005KT 10SM CLR 09/M06 A3013 RMK AO1
KAUN 212335Z AUTO 00000KT 10SM CLR 09/M07 A3013 RMK AO1
KAUN 212315Z AUTO 00000KT 10SM CLR 09/M07 A3013 RMK AO1
KAUN 212255Z AUTO 29007KT 10SM CLR 10/M07 A3014 RMK AO1
KAUN 212235Z AUTO 31005KT 10SM CLR 09/M06 A3015 RMK AO1
KAUN 212215Z AUTO 31007KT 10SM CLR 09/M07 A3015 RMK AO1
KAUN 212155Z AUTO 29010KT 10SM CLR 09/M08 A3015 RMK AO1
KAUN 212135Z AUTO 34006KT 10SM CLR 09/M08 A3015 RMK AO1
KAUN 212115Z AUTO 29007KT 10SM CLR 09/M07 A3015 RMK AO1
KAUN 212055Z AUTO 29006KT 10SM CLR 09/M06 A3015 RMK AO1
KAUN 212035Z AUTO 27008KT 10SM CLR 09/M05 A3016 RMK AO1
KAUN 212015Z AUTO 28007KT 10SM CLR 09/M05 A3016 RMK AO1
KAUN 211955Z AUTO 31004KT 10SM CLR 09/M07 A3018 RMK AO1
KAUN 211935Z AUTO 27005KT 10SM CLR 08/M07 A3017 RMK AO1
KAUN 211915Z AUTO 31003KT 10SM CLR 08/M07 A3017 RMK AO1
KAUN 211855Z AUTO 00000KT 10SM CLR 08/M08 A3018 RMK AO1